sensor_id;sensor_type;location;lat;lon;timestamp;P1;durP1;ratioP1;P2;durP2;ratioP2
46597;SDS011;32318;48.858;8.252;2023-04-08T00:01:42;15.52;;;7.68;;
46597;SDS011;32318;48.858;8.252;2023-04-08T00:09:43;13.48;;;7.88;;
46597;SDS011;32318;48.858;8.252;2023-04-08T00:17:43;18.20;;;8.60;;
46597;SDS011;32318;48.858;8.252;2023-04-08T00:25:44;17.88;;;8.95;;
46597;SDS011;32318;48.858;8.252;2023-04-08T00:33:44;16.52;;;8.77;;
46597;SDS011;32318;48.858;8.252;2023-04-08T01:30:45;15.70;;;8.95;;
46597;SDS011;32318;48.858;8.252;2023-04-08T01:38:47;22.48;;;9.63;;
46597;SDS011;32318;48.858;8.252;2023-04-08T01:46:48;22.80;;;11.40;;
46597;SDS011;32318;48.858;8.252;2023-04-08T01:54:49;17.77;;;9.65;;
46597;SDS011;32318;48.858;8.252;2023-04-08T02:02:49;20.02;;;10.88;;
46597;SDS011;32318;48.858;8.252;2023-04-08T02:10:50;20.20;;;11.35;;
46597;SDS011;32318;48.858;8.252;2023-04-08T02:18:55;21.63;;;9.73;;
46597;SDS011;32318;48.858;8.252;2023-04-08T02:26:58;16.75;;;9.52;;
46597;SDS011;32318;48.858;8.252;2023-04-08T02:35:00;18.48;;;10.23;;
46597;SDS011;32318;48.858;8.252;2023-04-08T02:43:02;20.40;;;10.40;;
46597;SDS011;32318;48.858;8.252;2023-04-08T02:51:03;19.77;;;9.88;;
46597;SDS011;32318;48.858;8.252;2023-04-08T02:59:03;19.58;;;10.45;;
46597;SDS011;32318;48.858;8.252;2023-04-08T03:07:03;20.08;;;11.15;;
46597;SDS011;32318;48.858;8.252;2023-04-08T03:15:04;18.35;;;10.68;;
46597;SDS011;32318;48.858;8.252;2023-04-08T03:23:05;17.38;;;9.98;;
46597;SDS011;32318;48.858;8.252;2023-04-08T03:31:05;19.77;;;10.18;;
46597;SDS011;32318;48.858;8.252;2023-04-08T03:39:05;20.15;;;10.30;;
46597;SDS011;32318;48.858;8.252;2023-04-08T03:47:06;18.40;;;10.68;;
46597;SDS011;32318;48.858;8.252;2023-04-08T03:55:06;23.50;;;11.15;;
46597;SDS011;32318;48.858;8.252;2023-04-08T04:03:06;19.55;;;11.02;;
46597;SDS011;32318;48.858;8.252;2023-04-08T04:11:09;19.27;;;10.50;;
46597;SDS011;32318;48.858;8.252;2023-04-08T04:19:09;20.48;;;11.55;;
46597;SDS011;32318;48.858;8.252;2023-04-08T04:27:10;17.93;;;10.40;;
46597;SDS011;32318;48.858;8.252;2023-04-08T04:35:11;19.65;;;10.48;;
46597;SDS011;32318;48.858;8.252;2023-04-08T04:43:11;17.80;;;10.27;;
46597;SDS011;32318;48.858;8.252;2023-04-08T04:51:12;24.65;;;11.25;;
46597;SDS011;32318;48.858;8.252;2023-04-08T04:59:12;20.83;;;11.15;;
46597;SDS011;32318;48.858;8.252;2023-04-08T05:07:12;22.10;;;10.70;;
46597;SDS011;32318;48.858;8.252;2023-04-08T05:15:13;24.55;;;12.73;;
46597;SDS011;32318;48.858;8.252;2023-04-08T05:23:13;21.33;;;11.45;;
46597;SDS011;32318;48.858;8.252;2023-04-08T05:31:16;25.05;;;13.38;;
46597;SDS011;32318;48.858;8.252;2023-04-08T05:39:18;29.20;;;15.25;;
46597;SDS011;32318;48.858;8.252;2023-04-08T05:47:19;23.40;;;13.88;;
46597;SDS011;32318;48.858;8.252;2023-04-08T05:55:19;24.77;;;12.98;;
46597;SDS011;32318;48.858;8.252;2023-04-08T06:03:19;23.65;;;14.07;;
46597;SDS011;32318;48.858;8.252;2023-04-08T06:11:20;30.02;;;14.57;;
46597;SDS011;32318;48.858;8.252;2023-04-08T06:19:20;30.45;;;15.25;;
46597;SDS011;32318;48.858;8.252;2023-04-08T06:27:20;34.97;;;16.38;;
46597;SDS011;32318;48.858;8.252;2023-04-08T06:35:20;30.50;;;16.30;;
46597;SDS011;32318;48.858;8.252;2023-04-08T06:43:21;29.98;;;16.10;;
46597;SDS011;32318;48.858;8.252;2023-04-08T06:51:21;34.92;;;16.58;;
46597;SDS011;32318;48.858;8.252;2023-04-08T06:59:21;31.63;;;17.00;;
46597;SDS011;32318;48.858;8.252;2023-04-08T07:07:22;36.05;;;19.23;;
46597;SDS011;32318;48.858;8.252;2023-04-08T07:15:23;36.45;;;19.48;;
46597;SDS011;32318;48.858;8.252;2023-04-08T07:23:23;39.50;;;18.73;;
46597;SDS011;32318;48.858;8.252;2023-04-08T07:31:23;39.28;;;17.63;;
46597;SDS011;32318;48.858;8.252;2023-04-08T07:39:23;35.05;;;17.65;;
46597;SDS011;32318;48.858;8.252;2023-04-08T07:47:24;31.35;;;15.02;;
46597;SDS011;32318;48.858;8.252;2023-04-08T07:55:24;24.95;;;11.20;;
46597;SDS011;32318;48.858;8.252;2023-04-08T08:03:24;24.60;;;11.77;;
46597;SDS011;32318;48.858;8.252;2023-04-08T08:11:25;26.38;;;12.88;;
46597;SDS011;32318;48.858;8.252;2023-04-08T08:19:27;24.05;;;11.32;;
46597;SDS011;32318;48.858;8.252;2023-04-08T08:27:27;25.55;;;10.25;;
46597;SDS011;32318;48.858;8.252;2023-04-08T08:35:27;19.67;;;8.75;;
46597;SDS011;32318;48.858;8.252;2023-04-08T08:43:27;16.83;;;7.93;;
46597;SDS011;32318;48.858;8.252;2023-04-08T08:51:28;15.95;;;8.20;;
46597;SDS011;32318;48.858;8.252;2023-04-08T08:59:29;17.40;;;7.57;;
46597;SDS011;32318;48.858;8.252;2023-04-08T09:07:30;17.65;;;8.32;;
46597;SDS011;32318;48.858;8.252;2023-04-08T09:15:34;17.35;;;8.48;;
46597;SDS011;32318;48.858;8.252;2023-04-08T09:23:37;19.05;;;9.40;;
46597;SDS011;32318;48.858;8.252;2023-04-08T09:31:39;18.50;;;9.73;;
46597;SDS011;32318;48.858;8.252;2023-04-08T09:39:42;21.23;;;10.18;;
46597;SDS011;32318;48.858;8.252;2023-04-08T09:47:55;20.35;;;10.05;;
46597;SDS011;32318;48.858;8.252;2023-04-08T09:55:57;17.25;;;10.15;;
46597;SDS011;32318;48.858;8.252;2023-04-08T10:03:59;17.52;;;10.43;;
46597;SDS011;32318;48.858;8.252;2023-04-08T10:12:04;17.67;;;10.70;;
46597;SDS011;32318;48.858;8.252;2023-04-08T10:20:06;19.48;;;11.18;;
46597;SDS011;32318;48.858;8.252;2023-04-08T10:28:37;17.35;;;10.23;;
46597;SDS011;32318;48.858;8.252;2023-04-08T10:36:37;20.08;;;10.43;;
46597;SDS011;32318;48.858;8.252;2023-04-08T10:44:43;17.08;;;10.85;;
46597;SDS011;32318;48.858;8.252;2023-04-08T10:52:47;20.13;;;10.63;;
46597;SDS011;32318;48.858;8.252;2023-04-08T11:00:51;18.20;;;9.63;;
46597;SDS011;32318;48.858;8.252;2023-04-08T11:08:52;18.10;;;10.43;;
46597;SDS011;32318;48.858;8.252;2023-04-08T11:16:52;22.33;;;10.38;;
46597;SDS011;32318;48.858;8.252;2023-04-08T11:24:52;19.73;;;10.57;;
46597;SDS011;32318;48.858;8.252;2023-04-08T11:32:55;19.52;;;10.27;;
46597;SDS011;32318;48.858;8.252;2023-04-08T11:40:56;21.92;;;11.15;;
46597;SDS011;32318;48.858;8.252;2023-04-08T11:48:58;21.83;;;10.25;;
46597;SDS011;32318;48.858;8.252;2023-04-08T11:57:03;19.47;;;10.63;;
46597;SDS011;32318;48.858;8.252;2023-04-08T12:05:03;16.52;;;9.88;;
46597;SDS011;32318;48.858;8.252;2023-04-08T12:13:04;19.83;;;10.27;;
46597;SDS011;32318;48.858;8.252;2023-04-08T12:21:04;18.30;;;9.65;;
46597;SDS011;32318;48.858;8.252;2023-04-08T12:29:04;20.35;;;11.10;;
46597;SDS011;32318;48.858;8.252;2023-04-08T12:37:05;19.13;;;10.30;;
46597;SDS011;32318;48.858;8.252;2023-04-08T12:45:05;18.70;;;10.05;;
46597;SDS011;32318;48.858;8.252;2023-04-08T12:53:07;19.45;;;9.25;;
46597;SDS011;32318;48.858;8.252;2023-04-08T13:01:07;20.80;;;10.00;;
46597;SDS011;32318;48.858;8.252;2023-04-08T13:09:07;21.92;;;11.38;;
46597;SDS011;32318;48.858;8.252;2023-04-08T13:17:08;20.17;;;10.55;;
46597;SDS011;32318;48.858;8.252;2023-04-08T13:25:08;18.50;;;10.07;;
46597;SDS011;32318;48.858;8.252;2023-04-08T13:33:08;25.65;;;11.00;;
46597;SDS011;32318;48.858;8.252;2023-04-08T13:41:09;24.08;;;11.35;;
46597;SDS011;32318;48.858;8.252;2023-04-08T13:49:09;19.60;;;10.25;;
46597;SDS011;32318;48.858;8.252;2023-04-08T13:57:09;19.93;;;10.77;;
46597;SDS011;32318;48.858;8.252;2023-04-08T14:05:10;20.63;;;10.57;;
46597;SDS011;32318;48.858;8.252;2023-04-08T14:13:10;20.40;;;10.45;;
46597;SDS011;32318;48.858;8.252;2023-04-08T14:21:10;23.55;;;10.32;;
46597;SDS011;32318;48.858;8.252;2023-04-08T14:29:13;20.73;;;10.35;;
46597;SDS011;32318;48.858;8.252;2023-04-08T14:37:13;21.10;;;10.00;;
46597;SDS011;32318;48.858;8.252;2023-04-08T14:45:14;19.90;;;9.77;;
46597;SDS011;32318;48.858;8.252;2023-04-08T14:53:15;21.50;;;10.20;;
46597;SDS011;32318;48.858;8.252;2023-04-08T15:01:15;29.27;;;12.82;;
46597;SDS011;32318;48.858;8.252;2023-04-08T15:09:16;17.02;;;9.38;;
46597;SDS011;32318;48.858;8.252;2023-04-08T15:17:16;13.63;;;7.82;;
46597;SDS011;32318;48.858;8.252;2023-04-08T15:25:16;14.45;;;7.15;;
46597;SDS011;32318;48.858;8.252;2023-04-08T15:33:16;14.15;;;7.75;;
46597;SDS011;32318;48.858;8.252;2023-04-08T15:41:18;12.82;;;6.30;;
46597;SDS011;32318;48.858;8.252;2023-04-08T15:49:20;13.15;;;7.28;;
46597;SDS011;32318;48.858;8.252;2023-04-08T15:57:20;11.40;;;6.03;;
46597;SDS011;32318;48.858;8.252;2023-04-08T16:05:25;17.10;;;6.72;;
46597;SDS011;32318;48.858;8.252;2023-04-08T16:13:28;11.88;;;6.30;;
46597;SDS011;32318;48.858;8.252;2023-04-08T16:21:29;14.57;;;6.90;;
46597;SDS011;32318;48.858;8.252;2023-04-08T16:29:29;16.45;;;7.75;;
46597;SDS011;32318;48.858;8.252;2023-04-08T16:37:31;13.15;;;7.70;;
46597;SDS011;32318;48.858;8.252;2023-04-08T16:45:32;14.30;;;8.05;;
46597;SDS011;32318;48.858;8.252;2023-04-08T16:53:32;14.85;;;7.78;;
46597;SDS011;32318;48.858;8.252;2023-04-08T17:01:33;19.15;;;7.75;;
46597;SDS011;32318;48.858;8.252;2023-04-08T17:09:33;14.25;;;8.32;;
46597;SDS011;32318;48.858;8.252;2023-04-08T17:17:33;13.55;;;7.60;;
46597;SDS011;32318;48.858;8.252;2023-04-08T17:25:34;18.83;;;9.05;;
46597;SDS011;32318;48.858;8.252;2023-04-08T17:33:34;15.25;;;8.30;;
46597;SDS011;32318;48.858;8.252;2023-04-08T17:41:35;16.27;;;8.27;;
46597;SDS011;32318;48.858;8.252;2023-04-08T17:49:36;13.57;;;7.60;;
46597;SDS011;32318;48.858;8.252;2023-04-08T17:57:36;14.27;;;7.28;;
46597;SDS011;32318;48.858;8.252;2023-04-08T18:05:37;11.27;;;6.03;;
46597;SDS011;32318;48.858;8.252;2023-04-08T18:13:40;13.40;;;5.72;;
46597;SDS011;32318;48.858;8.252;2023-04-08T18:21:51;12.50;;;6.13;;
46597;SDS011;32318;48.858;8.252;2023-04-08T18:29:51;12.43;;;5.75;;
46597;SDS011;32318;48.858;8.252;2023-04-08T18:37:52;14.55;;;5.70;;
46597;SDS011;32318;48.858;8.252;2023-04-08T18:45:52;12.93;;;5.20;;
46597;SDS011;32318;48.858;8.252;2023-04-08T18:53:53;10.77;;;5.85;;
46597;SDS011;32318;48.858;8.252;2023-04-08T19:01:53;10.15;;;5.30;;
46597;SDS011;32318;48.858;8.252;2023-04-08T19:09:55;16.23;;;6.50;;
46597;SDS011;32318;48.858;8.252;2023-04-08T19:17:56;12.35;;;4.63;;
46597;SDS011;32318;48.858;8.252;2023-04-08T19:25:57;10.15;;;4.70;;
46597;SDS011;32318;48.858;8.252;2023-04-08T19:33:58;8.98;;;4.22;;
46597;SDS011;32318;48.858;8.252;2023-04-08T19:41:58;10.07;;;4.60;;
46597;SDS011;32318;48.858;8.252;2023-04-08T19:49:58;17.92;;;7.80;;
46597;SDS011;32318;48.858;8.252;2023-04-08T19:57:58;17.30;;;6.85;;
46597;SDS011;32318;48.858;8.252;2023-04-08T20:05:59;10.48;;;5.20;;
46597;SDS011;32318;48.858;8.252;2023-04-08T20:13:59;6.05;;;3.53;;
46597;SDS011;32318;48.858;8.252;2023-04-08T20:22:00;7.70;;;3.77;;
46597;SDS011;32318;48.858;8.252;2023-04-08T20:30:00;9.95;;;4.57;;
46597;SDS011;32318;48.858;8.252;2023-04-08T20:38:01;11.02;;;4.50;;
46597;SDS011;32318;48.858;8.252;2023-04-08T20:46:02;10.48;;;4.05;;
46597;SDS011;32318;48.858;8.252;2023-04-08T20:54:02;12.35;;;4.88;;
46597;SDS011;32318;48.858;8.252;2023-04-08T21:02:03;7.60;;;4.30;;
46597;SDS011;32318;48.858;8.252;2023-04-08T21:10:04;8.57;;;4.47;;
46597;SDS011;32318;48.858;8.252;2023-04-08T21:18:05;8.73;;;3.90;;
46597;SDS011;32318;48.858;8.252;2023-04-08T21:26:11;9.90;;;4.00;;
46597;SDS011;32318;48.858;8.252;2023-04-08T21:42:12;15.30;;;4.60;;
46597;SDS011;32318;48.858;8.252;2023-04-08T21:50:13;8.52;;;4.43;;
46597;SDS011;32318;48.858;8.252;2023-04-08T21:58:13;8.95;;;4.60;;
46597;SDS011;32318;48.858;8.252;2023-04-08T22:06:14;9.02;;;4.05;;
46597;SDS011;32318;48.858;8.252;2023-04-08T22:14:14;6.90;;;4.30;;
46597;SDS011;32318;48.858;8.252;2023-04-08T22:22:16;7.78;;;4.63;;
46597;SDS011;32318;48.858;8.252;2023-04-08T22:30:16;7.20;;;4.18;;
46597;SDS011;32318;48.858;8.252;2023-04-08T22:38:16;9.77;;;4.78;;
46597;SDS011;32318;48.858;8.252;2023-04-08T22:46:17;9.38;;;5.13;;
46597;SDS011;32318;48.858;8.252;2023-04-08T22:54:18;8.70;;;4.90;;
46597;SDS011;32318;48.858;8.252;2023-04-08T23:02:19;10.20;;;5.25;;
46597;SDS011;32318;48.858;8.252;2023-04-08T23:10:19;8.43;;;4.88;;
46597;SDS011;32318;48.858;8.252;2023-04-08T23:18:20;8.98;;;5.07;;
46597;SDS011;32318;48.858;8.252;2023-04-08T23:26:20;9.43;;;5.25;;
46597;SDS011;32318;48.858;8.252;2023-04-08T23:34:20;16.17;;;5.50;;
46597;SDS011;32318;48.858;8.252;2023-04-08T23:42:21;12.30;;;5.73;;
46597;SDS011;32318;48.858;8.252;2023-04-08T23:50:25;9.77;;;5.78;;
46597;SDS011;32318;48.858;8.252;2023-04-08T23:58:26;22.98;;;5.93;;
